createdAt,value
2019-03-20T00:00:08.141Z,71.94
2019-03-20T00:00:34.651Z,71.84
2019-03-20T00:01:01.048Z,72.13
2019-03-20T00:01:28.355Z,71.75
2019-03-20T00:01:56.524Z,71.66
2019-03-20T00:02:22.884Z,72.03
2019-03-20T00:02:49.271Z,72.13
2019-03-20T00:03:15.827Z,72.13
2019-03-20T00:03:42.085Z,72.03
2019-03-20T00:04:08.492Z,72.32
2019-03-20T00:04:34.771Z,72.51
2019-03-20T00:05:03.001Z,72.79
2019-03-20T00:05:29.417Z,73.36
2019-03-20T00:05:55.689Z,73.08
2019-03-20T00:06:21.925Z,72.99
2019-03-20T00:06:48.308Z,73.27
2019-03-20T00:07:14.612Z,72.79
2019-03-20T00:07:41.122Z,73.18
2019-03-20T00:08:07.663Z,73.36
2019-03-20T00:08:34.057Z,73.55
2019-03-20T00:09:00.597Z,73.74
2019-03-20T00:09:26.875Z,73.46
2019-03-20T00:09:53.091Z,73.27
2019-03-20T00:10:19.571Z,73.46
2019-03-20T00:10:46.078Z,73.65
2019-03-20T00:11:12.552Z,73.27
2019-03-20T00:11:39.229Z,73.55
2019-03-20T00:12:05.465Z,73.18
2019-03-20T00:12:31.799Z,72.99
2019-03-20T00:12:57.995Z,73.08
2019-03-20T00:13:24.164Z,72.89
2019-03-20T00:13:50.260Z,72.99
2019-03-20T00:14:16.377Z,72.99
2019-03-20T00:14:42.473Z,73.18
2019-03-20T00:15:08.563Z,73.27
2019-03-20T00:15:34.654Z,72.6
2019-03-20T00:16:00.745Z,72.7
2019-03-20T00:16:26.838Z,73.27
2019-03-20T00:16:52.930Z,73.27
2019-03-20T00:17:19.778Z,73.18
2019-03-20T00:17:45.869Z,73.08
2019-03-20T00:18:12.015Z,73.46
2019-03-20T00:18:38.108Z,72.89
2019-03-20T00:19:04.201Z,72.89
2019-03-20T00:19:30.318Z,72.99
2019-03-20T00:19:56.414Z,73.27
2019-03-20T00:20:22.533Z,73.08
2019-03-20T00:20:48.625Z,73.18
2019-03-20T00:21:14.716Z,73.18
2019-03-20T00:21:40.810Z,73.27
2019-03-20T00:22:06.904Z,73.08
2019-03-20T00:22:32.997Z,73.08
2019-03-20T00:22:59.217Z,73.18
2019-03-20T00:23:25.308Z,72.99
2019-03-20T00:23:51.400Z,73.3
2019-03-20T00:24:17.493Z,73.08
2019-03-20T00:24:43.586Z,73.08
2019-03-20T00:25:09.705Z,72.99
2019-03-20T00:25:35.797Z,73.21
2019-03-20T00:26:01.915Z,73.08
2019-03-20T00:26:28.009Z,73.18
2019-03-20T00:26:54.106Z,73.27
2019-03-20T00:27:20.220Z,72.99
2019-03-20T00:27:46.311Z,73.08
2019-03-20T00:28:12.410Z,72.89
2019-03-20T00:28:38.498Z,73.18
2019-03-20T00:29:04.591Z,73.18
2019-03-20T00:29:30.684Z,73.46
2019-03-20T00:29:56.783Z,73.65
2019-03-20T00:30:22.896Z,73.74
2019-03-20T00:30:48.988Z,74.22
2019-03-20T00:31:15.105Z,74.41
2019-03-20T00:31:41.198Z,74.22
2019-03-20T00:32:07.293Z,74.31
2019-03-20T00:32:33.384Z,74.31
2019-03-20T00:32:59.510Z,73.84
2019-03-20T00:33:25.596Z,74.41
2019-03-20T00:33:51.715Z,74.12
2019-03-20T00:34:17.807Z,73.93
2019-03-20T00:34:43.899Z,73.93
2019-03-20T00:35:11.004Z,73.93
2019-03-20T00:35:37.096Z,74.31
2019-03-20T00:36:03.191Z,74.03
2019-03-20T00:36:29.313Z,74.03
2019-03-20T00:36:55.405Z,74.03
2019-03-20T00:37:21.497Z,74.12
2019-03-20T00:37:47.590Z,74.22
2019-03-20T00:38:13.682Z,74.03
2019-03-20T00:38:39.780Z,74.22
2019-03-20T00:39:05.869Z,73.93
2019-03-20T00:39:31.964Z,74.22
2019-03-20T00:39:58.081Z,74.69
2019-03-20T00:40:24.171Z,74.31
2019-03-20T00:40:50.262Z,74.41
2019-03-20T00:41:16.353Z,74.79
2019-03-20T00:41:42.444Z,74.69
2019-03-20T00:42:08.536Z,74.79
2019-03-20T00:42:35.548Z,74.69
2019-03-20T00:43:01.667Z,74.51
2019-03-20T00:43:27.756Z,74.79
2019-03-20T00:43:53.846Z,74.03
2019-03-20T00:44:19.939Z,74.22
2019-03-20T00:44:46.034Z,74.51
2019-03-20T00:45:12.148Z,74.12
2019-03-20T00:45:38.292Z,74.51
2019-03-20T00:46:04.384Z,74.51
2019-03-20T00:46:30.478Z,74.6
2019-03-20T00:46:56.570Z,74.69
2019-03-20T00:47:22.663Z,74.69
2019-03-20T00:47:48.756Z,74.79
2019-03-20T00:48:14.843Z,75.36
2019-03-20T00:48:40.933Z,75.55
2019-03-20T00:49:07.048Z,75.55
2019-03-20T00:49:33.140Z,75.17
2019-03-20T00:49:59.233Z,75.45
2019-03-20T00:50:25.353Z,75.64
2019-03-20T00:50:51.444Z,75.64
2019-03-20T00:51:17.562Z,75.45
2019-03-20T00:51:43.654Z,75.79
2019-03-20T00:52:09.748Z,76.37
2019-03-20T00:52:35.840Z,75.89
2019-03-20T00:53:01.940Z,75.84
2019-03-20T00:53:28.025Z,76.4
2019-03-20T00:53:54.117Z,76.03
2019-03-20T00:54:20.212Z,76.46
2019-03-20T00:54:46.303Z,76.56
2019-03-20T00:55:12.396Z,76.46
2019-03-20T00:55:38.490Z,76.75
2019-03-20T00:56:04.585Z,76.5
2019-03-20T00:56:30.678Z,76.56
2019-03-20T00:56:56.770Z,77.03
2019-03-20T00:57:22.861Z,76.84
2019-03-20T00:57:48.954Z,77.12
2019-03-20T00:58:15.051Z,76.84
2019-03-20T00:58:41.141Z,77.12
2019-03-20T00:59:07.231Z,76.84
2019-03-20T00:59:33.328Z,77.89
2019-03-20T00:59:59.420Z,77.79
2019-03-20T01:00:25.519Z,77.89
2019-03-20T01:00:51.604Z,77.98
2019-03-20T01:01:17.697Z,77.41
2019-03-20T01:01:43.788Z,77.22
2019-03-20T01:02:09.885Z,77.31
2019-03-20T01:02:35.978Z,77.22
2019-03-20T01:03:02.074Z,77.22
2019-03-20T01:03:28.165Z,77.51
2019-03-20T01:03:54.258Z,77.51
2019-03-20T01:04:20.354Z,77.7
2019-03-20T01:04:46.443Z,77.51
2019-03-20T01:05:14.539Z,77.6
2019-03-20T01:05:40.634Z,77.79
2019-03-20T01:06:06.751Z,77.6
2019-03-20T01:06:32.844Z,77.89
2019-03-20T01:06:58.939Z,77.79
2019-03-20T01:07:25.907Z,77.51
2019-03-20T01:07:51.999Z,78.17
2019-03-20T01:08:18.092Z,78.17
2019-03-20T01:08:44.235Z,78.55
2019-03-20T01:09:10.330Z,78.55
2019-03-20T01:09:36.424Z,78.74
2019-03-20T01:10:02.514Z,78.36
2019-03-20T01:10:28.609Z,78.55
2019-03-20T01:10:54.700Z,78.36
2019-03-20T01:11:20.792Z,78.45
2019-03-20T01:11:46.909Z,78.36
2019-03-20T01:12:13.002Z,78.93
2019-03-20T01:12:39.094Z,78.36
2019-03-20T01:13:05.185Z,78.45
2019-03-20T01:13:31.280Z,78.45
2019-03-20T01:13:57.374Z,78.83
2019-03-20T01:14:23.468Z,79.03
2019-03-20T01:14:49.559Z,79.03
2019-03-20T01:15:15.679Z,78.83
2019-03-20T01:15:41.773Z,78.93
2019-03-20T01:16:07.891Z,78.17
2019-03-20T01:16:33.983Z,78.36
2019-03-20T01:17:00.077Z,78.17
2019-03-20T01:17:26.169Z,78.45
2019-03-20T01:17:52.261Z,78.45
2019-03-20T01:18:18.354Z,78.45
2019-03-20T01:18:44.471Z,78.64
2019-03-20T01:19:10.564Z,79.03
2019-03-20T01:19:36.656Z,78.83
2019-03-20T01:20:02.747Z,78.93
2019-03-20T01:20:28.841Z,79.12
2019-03-20T01:20:54.934Z,79.22
2019-03-20T01:21:21.028Z,79.22
2019-03-20T01:21:47.145Z,79.03
2019-03-20T01:22:13.236Z,79.31
2019-03-20T01:22:39.328Z,79.22
2019-03-20T01:23:05.450Z,79.22
2019-03-20T01:23:31.566Z,79.31
2019-03-20T01:23:57.658Z,79.03
2019-03-20T01:24:23.752Z,79.03
2019-03-20T01:24:49.844Z,79.03
2019-03-20T01:25:15.935Z,78.45
2019-03-20T01:25:42.027Z,79.12
2019-03-20T01:26:08.146Z,78.83
2019-03-20T01:26:34.247Z,79.12
2019-03-20T01:27:00.334Z,78.93
2019-03-20T01:27:26.433Z,79.03
2019-03-20T01:27:52.524Z,79.03
2019-03-20T01:28:18.618Z,78.55
2019-03-20T01:28:44.709Z,78.93
2019-03-20T01:29:10.801Z,79.03
2019-03-20T01:29:36.919Z,79.31
2019-03-20T01:30:03.013Z,79.03
2019-03-20T01:30:29.104Z,78.93
2019-03-20T01:30:55.198Z,79.41
2019-03-20T01:31:21.289Z,79.5
2019-03-20T01:31:47.384Z,79.69
2019-03-20T01:32:13.477Z,79.6
2019-03-20T01:32:39.570Z,79.69
2019-03-20T01:33:05.662Z,79.79
2019-03-20T01:33:31.780Z,79.79
2019-03-20T01:33:58.864Z,80.16
2019-03-20T01:34:24.958Z,79.79
2019-03-20T01:34:51.051Z,79.5
2019-03-20T01:35:23.673Z,79.6
2019-03-20T01:35:45.106Z,79.69
2019-03-20T01:36:11.224Z,80.16
2019-03-20T01:36:37.341Z,80.16
2019-03-20T01:37:03.437Z,80.07
2019-03-20T01:37:29.525Z,80.16
2019-03-20T01:37:55.620Z,80.16
2019-03-20T01:38:21.714Z,80.35
2019-03-20T01:38:47.804Z,80.26
2019-03-20T01:39:13.899Z,80.26
2019-03-20T01:39:39.988Z,80.16
2019-03-20T01:40:06.082Z,79.79
2019-03-20T01:40:32.199Z,79.69
2019-03-20T01:40:59.281Z,79.5
2019-03-20T01:41:25.373Z,79.88
2019-03-20T01:41:52.477Z,79.97
2019-03-20T01:42:18.561Z,79.6
2019-03-20T01:42:44.678Z,80.07
2019-03-20T01:43:10.771Z,80.16
2019-03-20T01:43:36.861Z,80.45
2019-03-20T01:44:02.955Z,80.07
2019-03-20T01:44:29.049Z,80.16
2019-03-20T01:44:55.133Z,80.07
2019-03-20T01:45:21.436Z,80.16
2019-03-20T01:45:47.530Z,80.64
2019-03-20T01:46:13.622Z,80.07
2019-03-20T01:46:39.716Z,79.6
2019-03-20T01:47:06.873Z,79.6
2019-03-20T01:47:32.916Z,79.6
2019-03-20T01:47:59.057Z,79.69
2019-03-20T01:48:25.108Z,79.41
2019-03-20T01:48:51.200Z,79.31
2019-03-20T01:49:17.293Z,79.03
2019-03-20T01:49:43.377Z,79.22
2019-03-20T01:50:09.469Z,79.22
2019-03-20T01:50:35.594Z,79.22
2019-03-20T01:51:01.682Z,78.83
2019-03-20T01:51:27.828Z,78.55
2019-03-20T01:51:53.922Z,79.22
2019-03-20T01:52:20.040Z,79.03
2019-03-20T01:52:46.131Z,79.12
2019-03-20T01:53:12.225Z,78.83
2019-03-20T01:53:38.315Z,78.97
2019-03-20T01:54:04.409Z,79.03
2019-03-20T01:54:30.503Z,79.03
2019-03-20T01:54:56.597Z,79.06
2019-03-20T01:55:22.740Z,79.03
2019-03-20T01:55:48.884Z,79.31
2019-03-20T01:56:15.970Z,79.22
2019-03-20T01:56:42.110Z,79.12
2019-03-20T01:57:08.202Z,78.93
2019-03-20T01:57:34.294Z,79.03
2019-03-20T01:58:00.470Z,79.31
2019-03-20T01:58:26.574Z,79.03
2019-03-20T01:58:52.680Z,79.12
2019-03-20T01:59:18.810Z,78.93
2019-03-20T01:59:44.919Z,79.6
2019-03-20T02:00:11.028Z,79.6
2019-03-20T02:00:37.167Z,79.88
2019-03-20T02:01:03.278Z,80.07
2019-03-20T02:01:29.387Z,80.64
2019-03-20T02:01:55.493Z,80.45
2019-03-20T02:02:21.597Z,80.26
2019-03-20T02:02:47.703Z,80.64
2019-03-20T02:03:13.815Z,80.64
2019-03-20T02:03:40.941Z,80.74
2019-03-20T02:04:07.021Z,80.83
2019-03-20T02:04:33.127Z,80.83
2019-03-20T02:04:59.241Z,80.26
2019-03-20T02:05:35.019Z,81.02
2019-03-20T02:05:52.469Z,80.45
2019-03-20T02:06:18.576Z,80.55
2019-03-20T02:06:44.683Z,80.64
2019-03-20T02:07:10.793Z,80.64
2019-03-20T02:07:36.907Z,80.64
2019-03-20T02:08:03.037Z,80.83
2019-03-20T02:08:29.149Z,80.83
2019-03-20T02:08:55.251Z,80.55
2019-03-20T02:09:21.360Z,80.64
2019-03-20T02:09:47.465Z,80.74
2019-03-20T02:10:13.575Z,81.49
2019-03-20T02:10:39.671Z,81.36
2019-03-20T02:11:05.781Z,81.17
2019-03-20T02:11:31.884Z,81.55
2019-03-20T02:11:57.981Z,81.45
2019-03-20T02:12:24.091Z,82.12
2019-03-20T02:12:50.201Z,82.03
2019-03-20T02:13:16.298Z,81.84
2019-03-20T02:13:42.405Z,82.59
2019-03-20T02:14:08.511Z,82.31
2019-03-20T02:14:34.622Z,82.31
2019-03-20T02:15:00.729Z,82.78
2019-03-20T02:15:37.586Z,82.5
2019-03-20T02:15:54.946Z,82.59
2019-03-20T02:16:21.077Z,82.69
2019-03-20T02:16:47.216Z,82.31
2019-03-20T02:17:13.326Z,82.5
2019-03-20T02:17:39.482Z,81.93
2019-03-20T02:18:05.592Z,82.12
2019-03-20T02:18:31.699Z,81.97
2019-03-20T02:18:57.809Z,81.87
2019-03-20T02:19:23.917Z,81.59
2019-03-20T02:19:50.025Z,81.59
2019-03-20T02:20:16.171Z,81.4
2019-03-20T02:20:42.270Z,81.87
2019-03-20T02:21:08.380Z,81.68
2019-03-20T02:21:34.522Z,81.68
2019-03-20T02:22:00.633Z,81.87
2019-03-20T02:22:26.734Z,81.55
2019-03-20T02:22:52.848Z,81.74
2019-03-20T02:23:18.954Z,82.21
2019-03-20T02:23:45.077Z,82.03
2019-03-20T02:24:11.210Z,81.74
2019-03-20T02:24:37.308Z,81.87
2019-03-20T02:25:03.415Z,82.03
2019-03-20T02:25:30.318Z,82.12
2019-03-20T02:25:56.632Z,82.03
2019-03-20T02:26:22.734Z,81.78
2019-03-20T02:26:48.844Z,81.87
2019-03-20T02:27:14.949Z,81.49
2019-03-20T02:27:41.059Z,81.59
2019-03-20T02:28:07.196Z,81.4
2019-03-20T02:28:33.360Z,81.68
2019-03-20T02:28:59.415Z,81.4
2019-03-20T02:29:25.534Z,81.21
2019-03-20T02:29:51.660Z,81.26
2019-03-20T02:30:17.789Z,81.55
2019-03-20T02:30:43.895Z,81.78
2019-03-20T02:31:10.010Z,81.59
2019-03-20T02:31:36.107Z,81.59
2019-03-20T02:32:02.242Z,81.68
2019-03-20T02:32:28.352Z,81.78
2019-03-20T02:32:54.491Z,81.4
2019-03-20T02:33:20.656Z,81.65
2019-03-20T02:33:46.792Z,81.65
2019-03-20T02:34:12.930Z,81.55
2019-03-20T02:34:39.035Z,82.03
2019-03-20T02:35:05.173Z,81.84
2019-03-20T02:35:31.341Z,81.84
2019-03-20T02:35:59.447Z,81.74
2019-03-20T02:36:25.555Z,82.5
2019-03-20T02:36:51.702Z,82.31
2019-03-20T02:37:17.874Z,82.88
2019-03-20T02:37:43.979Z,83.16
2019-03-20T02:38:10.117Z,82.88
2019-03-20T02:38:36.244Z,82.97
2019-03-20T02:39:02.388Z,82.97
2019-03-20T02:39:28.526Z,83.26
2019-03-20T02:39:54.658Z,83.16
2019-03-20T02:40:20.767Z,83.16
2019-03-20T02:40:46.872Z,82.78
2019-03-20T02:41:13.016Z,82.78
2019-03-20T02:41:39.138Z,82.69
2019-03-20T02:42:05.250Z,82.4
2019-03-20T02:42:31.391Z,82.5
2019-03-20T02:42:57.519Z,82.5
2019-03-20T02:43:23.621Z,82.12
2019-03-20T02:43:49.764Z,82.21
2019-03-20T02:44:15.870Z,82.31
2019-03-20T02:44:41.979Z,82.69
2019-03-20T02:45:08.118Z,82.78
2019-03-20T02:45:34.229Z,82.21
2019-03-20T02:46:00.399Z,82.4
2019-03-20T02:46:26.533Z,82.4
2019-03-20T02:46:52.646Z,82.5
2019-03-20T02:47:18.750Z,82.5
2019-03-20T02:47:44.882Z,82.21
2019-03-20T02:48:11.019Z,82.59
2019-03-20T02:48:37.130Z,82.59
2019-03-20T02:49:03.318Z,82.31
2019-03-20T02:49:29.480Z,82.4
2019-03-20T02:49:55.670Z,82.59
2019-03-20T02:50:21.777Z,82.4
2019-03-20T02:50:47.909Z,82.31
2019-03-20T02:51:14.017Z,82.5
2019-03-20T02:51:40.124Z,81.93
2019-03-20T02:52:07.251Z,82.5
2019-03-20T02:52:33.353Z,82.31
2019-03-20T02:52:59.461Z,82.5
2019-03-20T02:53:25.570Z,82.59
2019-03-20T02:53:51.675Z,82.4
2019-03-20T02:54:17.781Z,82.5
2019-03-20T02:54:43.918Z,82.12
2019-03-20T02:55:10.020Z,82.5
2019-03-20T02:55:36.132Z,82.5
2019-03-20T02:56:02.253Z,82.59
2019-03-20T02:56:28.358Z,82.59
2019-03-20T02:56:54.467Z,82.78
2019-03-20T02:57:21.584Z,82.88
2019-03-20T02:57:47.693Z,82.97
2019-03-20T02:58:13.803Z,82.88
2019-03-20T02:58:39.898Z,82.88
2019-03-20T02:59:06.058Z,83.16
2019-03-20T02:59:32.165Z,82.97
2019-03-20T02:59:58.332Z,82.97
2019-03-20T03:00:24.463Z,83.07
2019-03-20T03:00:50.573Z,82.97
2019-03-20T03:01:16.707Z,82.69
2019-03-20T03:01:42.815Z,83.07
2019-03-20T03:02:08.980Z,82.78
2019-03-20T03:02:35.113Z,82.59
2019-03-20T03:03:01.228Z,82.59
2019-03-20T03:03:27.361Z,82.78
2019-03-20T03:03:53.498Z,82.5
2019-03-20T03:04:19.627Z,82.59
2019-03-20T03:04:45.740Z,82.59
2019-03-20T03:05:11.844Z,82.59
2019-03-20T03:05:37.956Z,82.78
2019-03-20T03:06:07.539Z,82.78
2019-03-20T03:06:33.199Z,82.97
2019-03-20T03:06:59.341Z,82.78
2019-03-20T03:07:25.449Z,82.69
2019-03-20T03:07:51.566Z,82.78
2019-03-20T03:08:17.659Z,82.78
2019-03-20T03:08:43.788Z,82.78
2019-03-20T03:09:09.881Z,82.5
2019-03-20T03:09:36.038Z,82.4
2019-03-20T03:10:02.178Z,82.59
2019-03-20T03:10:28.313Z,82.82
2019-03-20T03:10:55.766Z,82.31
2019-03-20T03:11:21.545Z,82.31
2019-03-20T03:11:47.680Z,82.4
2019-03-20T03:12:13.845Z,82.97
2019-03-20T03:12:39.978Z,82.97
2019-03-20T03:13:06.094Z,82.97
2019-03-20T03:13:32.207Z,82.78
2019-03-20T03:13:58.346Z,83.36
2019-03-20T03:14:24.497Z,83.36
2019-03-20T03:14:50.600Z,83.16
2019-03-20T03:15:16.757Z,83.83
2019-03-20T03:15:42.877Z,83.73
2019-03-20T03:16:08.985Z,84.21
2019-03-20T03:16:35.118Z,84.11
2019-03-20T03:17:01.224Z,84.01
2019-03-20T03:17:27.325Z,84.68
2019-03-20T03:17:53.440Z,84.3
2019-03-20T03:18:19.574Z,84.78
2019-03-20T03:18:45.703Z,85.06
2019-03-20T03:19:11.839Z,85.06
2019-03-20T03:19:38.007Z,84.97
2019-03-20T03:20:04.119Z,84.97
2019-03-20T03:20:30.252Z,84.97
2019-03-20T03:20:56.380Z,84.97
2019-03-20T03:21:22.537Z,84.97
2019-03-20T03:21:48.633Z,84.87
2019-03-20T03:22:14.746Z,85.06
2019-03-20T03:22:40.850Z,84.3
2019-03-20T03:23:06.958Z,84.49
2019-03-20T03:23:33.102Z,84.68
2019-03-20T03:23:59.235Z,83.92
2019-03-20T03:24:25.346Z,83.73
2019-03-20T03:24:51.446Z,84.21
2019-03-20T03:25:17.555Z,83.83
2019-03-20T03:25:43.661Z,83.54
2019-03-20T03:26:10.761Z,83.64
2019-03-20T03:26:36.891Z,84.11
2019-03-20T03:27:03.136Z,83.45
2019-03-20T03:27:29.236Z,84.11
2019-03-20T03:27:55.377Z,84.4
2019-03-20T03:28:21.488Z,84.4
2019-03-20T03:28:47.588Z,84.4
2019-03-20T03:29:13.752Z,84.4
2019-03-20T03:29:39.895Z,84.3
2019-03-20T03:30:06.012Z,84.78
2019-03-20T03:30:32.402Z,84.78
2019-03-20T03:30:58.571Z,84.97
2019-03-20T03:31:24.690Z,84.68
2019-03-20T03:31:50.862Z,85.35
2019-03-20T03:32:17.033Z,85.25
2019-03-20T03:32:43.204Z,85.3
2019-03-20T03:33:09.276Z,85.59
2019-03-20T03:33:35.430Z,85.3
2019-03-20T03:34:01.622Z,85.78
2019-03-20T03:34:27.727Z,85.4
2019-03-20T03:34:53.845Z,85.68
2019-03-20T03:35:21.939Z,85.97
2019-03-20T03:35:48.070Z,86.07
2019-03-20T03:36:20.871Z,86.44
2019-03-20T03:36:42.874Z,86.44
2019-03-20T03:37:08.978Z,86.16
2019-03-20T03:37:35.105Z,87.01
2019-03-20T03:38:01.216Z,86.82
2019-03-20T03:38:27.329Z,86.72
2019-03-20T03:38:53.463Z,86.91
2019-03-20T03:39:19.626Z,87.01
2019-03-20T03:39:45.735Z,87.2
2019-03-20T03:40:11.837Z,87.2
2019-03-20T03:40:38.000Z,87.39
2019-03-20T03:41:04.109Z,87.58
2019-03-20T03:41:30.217Z,87.2
2019-03-20T03:41:56.327Z,87.01
2019-03-20T03:42:22.469Z,87.11
2019-03-20T03:42:48.623Z,87.11
2019-03-20T03:43:14.699Z,86.91
2019-03-20T03:43:40.809Z,86.91
2019-03-20T03:44:06.917Z,86.82
2019-03-20T03:44:33.040Z,86.72
2019-03-20T03:44:59.175Z,86.63
2019-03-20T03:45:25.292Z,86.72
2019-03-20T03:45:51.393Z,86.82
2019-03-20T03:46:17.537Z,86.91
2019-03-20T03:46:43.739Z,87.11
2019-03-20T03:47:09.845Z,86.82
2019-03-20T03:47:35.945Z,86.72
2019-03-20T03:48:02.095Z,87.01
2019-03-20T03:48:28.211Z,86.72
2019-03-20T03:48:54.342Z,87.01
2019-03-20T03:49:20.455Z,86.72
2019-03-20T03:49:46.594Z,86.91
2019-03-20T03:50:12.724Z,87.68
2019-03-20T03:50:38.838Z,87.58
2019-03-20T03:51:04.944Z,87.49
2019-03-20T03:51:31.080Z,87.77
2019-03-20T03:51:57.254Z,87.68
2019-03-20T03:52:23.357Z,87.68
2019-03-20T03:52:49.507Z,88.24
2019-03-20T03:53:15.614Z,87.87
2019-03-20T03:53:41.748Z,88.06
2019-03-20T03:54:07.851Z,87.96
2019-03-20T03:54:33.962Z,87.87
2019-03-20T03:55:00.078Z,87.87
2019-03-20T03:55:26.284Z,88.34
2019-03-20T03:55:52.423Z,87.87
2019-03-20T03:56:18.525Z,87.87
2019-03-20T03:56:44.632Z,87.58
2019-03-20T03:57:10.740Z,88.06
2019-03-20T03:57:36.858Z,88.24
2019-03-20T03:58:02.953Z,88.43
2019-03-20T03:58:29.090Z,87.68
2019-03-20T03:58:55.219Z,87.68
2019-03-20T03:59:21.320Z,87.49
2019-03-20T03:59:47.426Z,87.11
2019-03-20T04:00:13.558Z,87.49
2019-03-20T04:00:39.692Z,87.68
2019-03-20T04:01:05.809Z,87.68
2019-03-20T04:01:31.914Z,87.58
2019-03-20T04:01:58.018Z,87.58
2019-03-20T04:02:24.152Z,87.39
2019-03-20T04:02:50.284Z,87.49
2019-03-20T04:03:16.394Z,87.58
2019-03-20T04:03:42.529Z,87.68
2019-03-20T04:04:08.642Z,87.68
2019-03-20T04:04:34.773Z,87.2
2019-03-20T04:05:00.911Z,87.77
2019-03-20T04:05:27.147Z,87.58
2019-03-20T04:05:53.313Z,88.15
2019-03-20T04:06:19.604Z,87.58
2019-03-20T04:06:47.658Z,87.39
2019-03-20T04:07:13.787Z,87.68
2019-03-20T04:07:39.934Z,87.96
2019-03-20T04:08:06.060Z,87.58
2019-03-20T04:08:32.202Z,87.58
2019-03-20T04:08:58.304Z,88.15
2019-03-20T04:09:24.449Z,87.96
2019-03-20T04:09:50.552Z,87.68
2019-03-20T04:10:16.697Z,87.77
2019-03-20T04:10:42.789Z,88.06
2019-03-20T04:11:08.891Z,87.68
2019-03-20T04:11:35.004Z,88.15
2019-03-20T04:12:01.206Z,88.43
2019-03-20T04:12:27.294Z,88.53
2019-03-20T04:12:53.430Z,88.72
2019-03-20T04:13:19.562Z,88.53
2019-03-20T04:13:45.672Z,88.34
2019-03-20T04:14:11.835Z,88.43
2019-03-20T04:14:37.940Z,88.81
2019-03-20T04:15:04.073Z,88.72
2019-03-20T04:15:30.258Z,89.29
2019-03-20T04:15:57.332Z,88.62
2019-03-20T04:16:23.505Z,89.1
2019-03-20T04:16:49.611Z,89
2019-03-20T04:17:15.718Z,88.72
2019-03-20T04:17:41.847Z,89.1
2019-03-20T04:18:08.016Z,88.91
2019-03-20T04:18:34.156Z,89.1
2019-03-20T04:19:00.286Z,89.06
2019-03-20T04:19:26.402Z,89.39
2019-03-20T04:19:52.506Z,88.72
2019-03-20T04:20:18.660Z,89
2019-03-20T04:20:44.756Z,89.29
2019-03-20T04:21:10.893Z,89
2019-03-20T04:21:37.057Z,89.39
2019-03-20T04:22:03.165Z,89
2019-03-20T04:22:29.300Z,88.72
2019-03-20T04:22:55.466Z,88.81
2019-03-20T04:23:21.596Z,88.72
2019-03-20T04:23:47.756Z,88.72
2019-03-20T04:24:13.865Z,89
2019-03-20T04:24:39.982Z,89.2
2019-03-20T04:25:06.086Z,89
2019-03-20T04:25:32.242Z,89
2019-03-20T04:25:58.389Z,89
2019-03-20T04:26:24.522Z,88.62
2019-03-20T04:26:50.632Z,88.81
2019-03-20T04:27:16.737Z,88.81
2019-03-20T04:27:43.032Z,88.91
2019-03-20T04:28:09.165Z,88.81
2019-03-20T04:28:35.327Z,88.62
2019-03-20T04:29:01.456Z,88.72
2019-03-20T04:29:27.559Z,89.1
2019-03-20T04:29:53.667Z,88.91
2019-03-20T04:30:19.839Z,88.91
2019-03-20T04:30:45.947Z,89.2
2019-03-20T04:31:12.056Z,89.2
2019-03-20T04:31:38.183Z,88.91
2019-03-20T04:32:04.316Z,88.91
2019-03-20T04:32:30.495Z,88.62
2019-03-20T04:32:56.580Z,88.81
2019-03-20T04:33:22.712Z,88.81
2019-03-20T04:33:48.821Z,88.53
2019-03-20T04:34:14.934Z,88.91
2019-03-20T04:34:41.063Z,88.62
2019-03-20T04:35:07.206Z,88.91
2019-03-20T04:35:33.335Z,88.62
2019-03-20T04:35:59.475Z,88.91
2019-03-20T04:36:25.585Z,88.72
2019-03-20T04:36:53.700Z,89
2019-03-20T04:37:19.798Z,89.2
2019-03-20T04:37:45.890Z,89.1
2019-03-20T04:38:12.002Z,89.39
2019-03-20T04:38:38.105Z,88.72
2019-03-20T04:39:04.213Z,88.72
2019-03-20T04:39:30.321Z,88.91
2019-03-20T04:39:56.431Z,88.81
2019-03-20T04:40:22.560Z,88.81
2019-03-20T04:40:48.682Z,88.91
2019-03-20T04:41:14.785Z,88.62
2019-03-20T04:41:40.923Z,88.72
2019-03-20T04:42:07.028Z,88.62
2019-03-20T04:42:33.133Z,88.15
2019-03-20T04:42:59.235Z,88.43
2019-03-20T04:43:25.340Z,88.24
2019-03-20T04:43:51.479Z,88.34
2019-03-20T04:44:17.587Z,87.58
2019-03-20T04:44:43.696Z,88.06
2019-03-20T04:45:12.092Z,88.43
2019-03-20T04:45:36.891Z,88.34
2019-03-20T04:46:02.991Z,87.96
2019-03-20T04:46:29.098Z,87.68
2019-03-20T04:46:55.228Z,88.15
2019-03-20T04:47:21.338Z,88.24
2019-03-20T04:47:47.446Z,87.96
2019-03-20T04:48:13.547Z,88.34
2019-03-20T04:48:39.654Z,88.24
2019-03-20T04:49:05.768Z,88.15
2019-03-20T04:49:31.879Z,88.24
2019-03-20T04:49:57.992Z,88.24
2019-03-20T04:50:24.099Z,88.34
2019-03-20T04:50:50.229Z,88.43
2019-03-20T04:51:16.333Z,88.53
2019-03-20T04:51:42.445Z,88.91
2019-03-20T04:52:08.554Z,88.62
2019-03-20T04:52:34.667Z,89
2019-03-20T04:53:00.770Z,88.15
2019-03-20T04:53:26.872Z,88.43
2019-03-20T04:53:53.010Z,88.43
2019-03-20T04:54:19.125Z,88.15
2019-03-20T04:54:45.227Z,88.43
2019-03-20T04:55:11.366Z,88.43
2019-03-20T04:55:37.474Z,88.34
2019-03-20T04:56:03.588Z,88.06
2019-03-20T04:56:29.687Z,88.24
2019-03-20T04:56:55.797Z,88.24
2019-03-20T04:57:21.932Z,87.96
2019-03-20T04:57:49.035Z,88.43
2019-03-20T04:58:15.140Z,88.43
2019-03-20T04:58:41.251Z,87.77
2019-03-20T04:59:07.354Z,87.77
2019-03-20T04:59:33.455Z,87.49
2019-03-20T04:59:59.555Z,87.49
2019-03-20T05:00:25.662Z,87.58
2019-03-20T05:00:51.800Z,87.11
2019-03-20T05:01:17.906Z,87.2
2019-03-20T05:01:44.013Z,87.58
2019-03-20T05:02:10.133Z,87.49
2019-03-20T05:02:36.243Z,87.58
2019-03-20T05:03:02.354Z,87.39
2019-03-20T05:03:28.460Z,87.2
2019-03-20T05:03:54.569Z,87.68
2019-03-20T05:04:20.672Z,87.2
2019-03-20T05:04:46.815Z,87.49
2019-03-20T05:05:12.925Z,87.3
2019-03-20T05:05:39.032Z,87.58
2019-03-20T05:06:05.140Z,87.96
2019-03-20T05:06:31.251Z,87.87
2019-03-20T05:06:59.483Z,87.3
2019-03-20T05:07:25.495Z,87.3
2019-03-20T05:07:51.597Z,87.49
2019-03-20T05:08:17.704Z,87.49
2019-03-20T05:08:43.812Z,87.58
2019-03-20T05:09:10.526Z,87.68
2019-03-20T05:09:36.635Z,88.34
2019-03-20T05:10:02.748Z,88.34
2019-03-20T05:10:28.854Z,88.24
2019-03-20T05:10:54.969Z,88.34
2019-03-20T05:11:21.076Z,88.15
2019-03-20T05:11:47.189Z,88.06
2019-03-20T05:12:13.277Z,87.77
2019-03-20T05:12:39.381Z,87.87
2019-03-20T05:13:05.485Z,88.06
2019-03-20T05:13:31.617Z,87.96
2019-03-20T05:13:57.723Z,87.87
2019-03-20T05:14:23.862Z,87.58
2019-03-20T05:14:49.966Z,87.68
2019-03-20T05:15:16.122Z,87.68
2019-03-20T05:15:42.222Z,88.06
2019-03-20T05:16:08.324Z,87.87
2019-03-20T05:16:34.434Z,87.58
2019-03-20T05:17:00.540Z,87.39
2019-03-20T05:17:26.648Z,87.49
2019-03-20T05:17:52.758Z,87.49
2019-03-20T05:18:18.874Z,87.39
2019-03-20T05:18:44.976Z,87.49
2019-03-20T05:19:11.104Z,87.58
2019-03-20T05:19:37.218Z,87.77
2019-03-20T05:20:03.323Z,87.96
2019-03-20T05:20:29.424Z,87.68
2019-03-20T05:20:55.532Z,87.87
2019-03-20T05:21:21.636Z,87.96
2019-03-20T05:21:47.741Z,87.39
2019-03-20T05:22:13.854Z,87.58
2019-03-20T05:22:39.972Z,87.58
2019-03-20T05:23:08.425Z,87.49
2019-03-20T05:23:33.174Z,87.39
2019-03-20T05:23:59.280Z,87.58
2019-03-20T05:24:25.398Z,87.49
2019-03-20T05:24:51.530Z,87.87
2019-03-20T05:25:17.641Z,87.77
2019-03-20T05:25:43.743Z,87.58
2019-03-20T05:26:09.861Z,88.06
2019-03-20T05:26:35.971Z,87.87
2019-03-20T05:27:02.076Z,87.68
2019-03-20T05:27:28.180Z,87.68
2019-03-20T05:27:54.323Z,87.68
2019-03-20T05:28:20.430Z,87.68
2019-03-20T05:28:46.535Z,87.58
2019-03-20T05:29:12.677Z,88.06
2019-03-20T05:29:38.784Z,88.34
2019-03-20T05:30:04.897Z,88.43
2019-03-20T05:30:31.033Z,87.87
2019-03-20T05:30:57.145Z,88.34
2019-03-20T05:31:23.248Z,87.87
2019-03-20T05:31:49.357Z,88.24
2019-03-20T05:32:15.466Z,88.24
2019-03-20T05:32:41.572Z,88.24
2019-03-20T05:33:07.718Z,88.43
2019-03-20T05:33:33.823Z,88.06
2019-03-20T05:33:59.932Z,88.34
2019-03-20T05:34:26.044Z,88.34
2019-03-20T05:34:52.152Z,88.34
2019-03-20T05:35:18.258Z,87.68
2019-03-20T05:35:44.368Z,88.53
2019-03-20T05:36:10.499Z,88.29
2019-03-20T05:36:36.609Z,88.91
2019-03-20T05:37:10.098Z,88.81
2019-03-20T05:37:29.841Z,88.58
2019-03-20T05:37:55.984Z,88.68
2019-03-20T05:38:22.093Z,89.2
2019-03-20T05:38:48.223Z,88.62